sensor_id;sensor_type;location;lat;lon;timestamp;pressure;altitude;pressure_sealevel;temperature;humidity
62617;BME280;62539;51.190;6.808;2023-02-12T00:01:47;103503.09;;;20.53;47.37
62617;BME280;62539;51.190;6.808;2023-02-12T00:04:13;103498.72;;;20.49;47.56
62617;BME280;62539;51.190;6.808;2023-02-12T00:06:38;103501.38;;;20.45;47.73
62617;BME280;62539;51.190;6.808;2023-02-12T00:09:04;103497.81;;;20.41;47.62
62617;BME280;62539;51.190;6.808;2023-02-12T00:11:30;103494.31;;;20.37;47.87
62617;BME280;62539;51.190;6.808;2023-02-12T00:13:56;103496.94;;;20.33;47.97
62617;BME280;62539;51.190;6.808;2023-02-12T00:16:25;103503.97;;;20.29;48.10
62617;BME280;62539;51.190;6.808;2023-02-12T00:18:53;103493.41;;;20.21;48.15
62617;BME280;62539;51.190;6.808;2023-02-12T00:21:21;103500.44;;;20.19;48.22
62617;BME280;62539;51.190;6.808;2023-02-12T00:23:47;103496.91;;;20.14;48.18
62617;BME280;62539;51.190;6.808;2023-02-12T00:26:16;103494.25;;;20.11;48.33
62617;BME280;62539;51.190;6.808;2023-02-12T00:28:43;103492.50;;;20.07;48.40
62617;BME280;62539;51.190;6.808;2023-02-12T00:31:12;103495.13;;;20.04;48.51
62617;BME280;62539;51.190;6.808;2023-02-12T00:33:43;103488.09;;;20.00;48.45
62617;BME280;62539;51.190;6.808;2023-02-12T00:36:12;103495.09;;;19.97;48.54
62617;BME280;62539;51.190;6.808;2023-02-12T00:38:39;103489.84;;;19.94;48.62
62617;BME280;62539;51.190;6.808;2023-02-12T00:41:05;103490.72;;;19.92;48.70
62617;BME280;62539;51.190;6.808;2023-02-12T00:43:30;103496.84;;;19.89;48.59
62617;BME280;62539;51.190;6.808;2023-02-12T00:45:56;103497.69;;;19.87;48.70
62617;BME280;62539;51.190;6.808;2023-02-12T00:48:21;103495.91;;;19.84;48.76
62617;BME280;62539;51.190;6.808;2023-02-12T00:50:47;103495.03;;;19.82;48.76
62617;BME280;62539;51.190;6.808;2023-02-12T00:53:15;103494.16;;;19.80;48.64
62617;BME280;62539;51.190;6.808;2023-02-12T00:55:41;103491.50;;;19.77;48.94
62617;BME280;62539;51.190;6.808;2023-02-12T00:58:07;103492.38;;;19.76;48.69
62617;BME280;62539;51.190;6.808;2023-02-12T01:00:33;103485.34;;;19.73;49.08
62617;BME280;62539;51.190;6.808;2023-02-12T01:02:58;103487.97;;;19.70;49.01
62617;BME280;62539;51.190;6.808;2023-02-12T01:05:24;103487.09;;;19.68;49.13
62617;BME280;62539;51.190;6.808;2023-02-12T01:07:50;103484.44;;;19.66;49.14
62617;BME280;62539;51.190;6.808;2023-02-12T01:10:17;103491.44;;;19.64;49.06
62617;BME280;62539;51.190;6.808;2023-02-12T01:12:48;103486.16;;;19.61;49.01
62617;BME280;62539;51.190;6.808;2023-02-12T01:15:14;103475.63;;;19.58;49.18
62617;BME280;62539;51.190;6.808;2023-02-12T01:17:42;103482.63;;;19.56;49.14
62617;BME280;62539;51.190;6.808;2023-02-12T01:20:11;103485.28;;;19.54;49.23
62617;BME280;62539;51.190;6.808;2023-02-12T01:22:41;103489.63;;;19.51;49.31
62617;BME280;62539;51.190;6.808;2023-02-12T01:25:07;103484.38;;;19.49;49.32
62617;BME280;62539;51.190;6.808;2023-02-12T01:27:33;103477.34;;;19.47;49.29
62617;BME280;62539;51.190;6.808;2023-02-12T01:30:01;103472.94;;;19.46;49.41
62617;BME280;62539;51.190;6.808;2023-02-12T01:32:27;103471.19;;;19.43;49.52
62617;BME280;62539;51.190;6.808;2023-02-12T01:34:53;103471.16;;;19.42;49.54
62617;BME280;62539;51.190;6.808;2023-02-12T01:37:18;103472.91;;;19.39;49.49
62617;BME280;62539;51.190;6.808;2023-02-12T01:39:43;103479.91;;;19.37;49.45
62617;BME280;62539;51.190;6.808;2023-02-12T01:42:11;103475.53;;;19.36;49.67
62617;BME280;62539;51.190;6.808;2023-02-12T01:44:43;103479.03;;;19.34;49.60
62617;BME280;62539;51.190;6.808;2023-02-12T01:47:29;103475.50;;;19.30;49.50
62617;BME280;62539;51.190;6.808;2023-02-12T01:49:55;103474.63;;;19.30;49.68
62617;BME280;62539;51.190;6.808;2023-02-12T01:52:26;103475.47;;;19.27;49.77
62617;BME280;62539;51.190;6.808;2023-02-12T01:54:59;103477.22;;;19.25;49.93
62617;BME280;62539;51.190;6.808;2023-02-12T01:57:31;103472.84;;;19.22;49.70
62617;BME280;62539;51.190;6.808;2023-02-12T02:00:00;103466.69;;;19.22;49.92
62617;BME280;62539;51.190;6.808;2023-02-12T02:02:31;103469.31;;;19.20;49.77
62617;BME280;62539;51.190;6.808;2023-02-12T02:04:59;103464.91;;;19.18;49.80
62617;BME280;62539;51.190;6.808;2023-02-12T02:07:27;103467.53;;;19.16;49.82
62617;BME280;62539;51.190;6.808;2023-02-12T02:09:54;103471.00;;;19.14;50.02
62617;BME280;62539;51.190;6.808;2023-02-12T02:12:20;103469.25;;;19.13;49.88
62617;BME280;62539;51.190;6.808;2023-02-12T02:15:05;103462.25;;;19.10;49.93
62617;BME280;62539;51.190;6.808;2023-02-12T02:17:58;103468.34;;;19.07;49.87
62617;BME280;62539;51.190;6.808;2023-02-12T02:20:48;103472.75;;;19.07;50.03
62617;BME280;62539;51.190;6.808;2023-02-12T02:23:53;103464.81;;;19.02;50.08
62617;BME280;62539;51.190;6.808;2023-02-12T02:33:09;103471.72;;;18.94;50.20
62617;BME280;62539;51.190;6.808;2023-02-12T02:36:04;103464.69;;;18.90;50.31
62617;BME280;62539;51.190;6.808;2023-02-12T02:38:40;103459.44;;;18.90;50.36
62617;BME280;62539;51.190;6.808;2023-02-12T02:44:03;103462.00;;;18.84;50.39
62617;BME280;62539;51.190;6.808;2023-02-12T02:46:45;103464.66;;;18.84;50.55
62617;BME280;62539;51.190;6.808;2023-02-12T02:49:16;103466.38;;;18.81;50.57
62617;BME280;62539;51.190;6.808;2023-02-12T02:51:49;103460.22;;;18.79;50.48
62617;BME280;62539;51.190;6.808;2023-02-12T02:54:29;103460.25;;;18.78;50.61
62617;BME280;62539;51.190;6.808;2023-02-12T02:57:11;103459.34;;;18.77;50.67
62617;BME280;62539;51.190;6.808;2023-02-12T02:59:45;103461.09;;;18.78;50.59
62617;BME280;62539;51.190;6.808;2023-02-12T03:02:33;103462.84;;;18.76;50.32
62617;BME280;62539;51.190;6.808;2023-02-12T03:05:09;103461.97;;;18.76;50.58
62617;BME280;62539;51.190;6.808;2023-02-12T03:07:47;103460.22;;;18.75;50.59
62617;BME280;62539;51.190;6.808;2023-02-12T03:10:25;103463.72;;;18.74;50.63
62617;BME280;62539;51.190;6.808;2023-02-12T03:13:01;103459.31;;;18.74;50.55
62617;BME280;62539;51.190;6.808;2023-02-12T03:15:38;103461.94;;;18.73;50.60
62617;BME280;62539;51.190;6.808;2023-02-12T03:18:11;103459.28;;;18.71;50.45
62617;BME280;62539;51.190;6.808;2023-02-12T03:20:54;103464.56;;;18.71;50.60
62617;BME280;62539;51.190;6.808;2023-02-12T03:23:28;103457.53;;;18.70;50.81
62617;BME280;62539;51.190;6.808;2023-02-12T03:26:05;103450.50;;;18.69;50.54
62617;BME280;62539;51.190;6.808;2023-02-12T03:28:37;103456.63;;;18.68;50.68
62617;BME280;62539;51.190;6.808;2023-02-12T03:31:18;103454.88;;;18.65;50.69
62617;BME280;62539;51.190;6.808;2023-02-12T03:34:08;103455.72;;;18.63;50.82
62617;BME280;62539;51.190;6.808;2023-02-12T03:36:48;103457.50;;;18.62;50.71
62617;BME280;62539;51.190;6.808;2023-02-12T03:39:43;103457.47;;;18.61;50.58
62617;BME280;62539;51.190;6.808;2023-02-12T03:42:36;103453.94;;;18.59;50.71
62617;BME280;62539;51.190;6.808;2023-02-12T03:50:57;103456.53;;;18.54;50.81
62617;BME280;62539;51.190;6.808;2023-02-12T03:53:28;103456.56;;;18.53;50.81
62617;BME280;62539;51.190;6.808;2023-02-12T03:56:01;103452.16;;;18.53;51.02
62617;BME280;62539;51.190;6.808;2023-02-12T03:58:34;103458.28;;;18.52;51.02
62617;BME280;62539;51.190;6.808;2023-02-12T04:01:03;103453.91;;;18.51;50.96
62617;BME280;62539;51.190;6.808;2023-02-12T04:03:29;103454.75;;;18.50;50.93
62617;BME280;62539;51.190;6.808;2023-02-12T04:05:55;103456.53;;;18.49;50.66
62617;BME280;62539;51.190;6.808;2023-02-12T04:08:21;103456.53;;;18.49;50.94
62617;BME280;62539;51.190;6.808;2023-02-12T04:20:05;103466.09;;;18.41;50.83
62617;BME280;62539;51.190;6.808;2023-02-12T04:22:49;103466.06;;;18.40;50.96
62617;BME280;62539;51.190;6.808;2023-02-12T04:26:11;103471.31;;;18.38;51.01
62617;BME280;62539;51.190;6.808;2023-02-12T04:29:04;103477.44;;;18.37;50.95
62617;BME280;62539;51.190;6.808;2023-02-12T04:31:57;103475.66;;;18.34;51.08
62617;BME280;62539;51.190;6.808;2023-02-12T04:34:32;103481.75;;;18.29;51.26
62617;BME280;62539;51.190;6.808;2023-02-12T04:37:14;103481.75;;;18.29;51.26
62617;BME280;62539;51.190;6.808;2023-02-12T04:39:43;103483.47;;;18.27;51.23
62617;BME280;62539;51.190;6.808;2023-02-12T04:42:10;103491.34;;;18.27;51.33
62617;BME280;62539;51.190;6.808;2023-02-12T04:44:41;103492.22;;;18.26;51.32
62617;BME280;62539;51.190;6.808;2023-02-12T04:47:11;103490.47;;;18.25;51.21
62617;BME280;62539;51.190;6.808;2023-02-12T04:49:38;103485.19;;;18.25;51.21
62617;BME280;62539;51.190;6.808;2023-02-12T04:52:04;103493.09;;;18.25;51.25
62617;BME280;62539;51.190;6.808;2023-02-12T04:54:30;103492.19;;;18.24;51.31
62617;BME280;62539;51.190;6.808;2023-02-12T04:56:56;103493.94;;;18.24;51.40
62617;BME280;62539;51.190;6.808;2023-02-12T04:59:21;103491.31;;;18.24;51.29
62617;BME280;62539;51.190;6.808;2023-02-12T05:01:47;103488.69;;;18.24;51.09
62617;BME280;62539;51.190;6.808;2023-02-12T05:04:14;103493.94;;;18.24;51.32
62617;BME280;62539;51.190;6.808;2023-02-12T05:06:41;103490.50;;;18.28;51.35
62617;BME280;62539;51.190;6.808;2023-02-12T05:09:09;103495.81;;;18.34;51.24
62617;BME280;62539;51.190;6.808;2023-02-12T05:11:40;103490.63;;;18.43;51.36
62617;BME280;62539;51.190;6.808;2023-02-12T05:14:05;103494.25;;;18.55;51.04
62617;BME280;62539;51.190;6.808;2023-02-12T05:16:31;103487.31;;;18.66;50.81
62617;BME280;62539;51.190;6.808;2023-02-12T05:18:56;103494.44;;;18.81;50.66
62617;BME280;62539;51.190;6.808;2023-02-12T05:21:22;103498.94;;;18.94;50.42
62617;BME280;62539;51.190;6.808;2023-02-12T05:23:47;103500.81;;;19.09;50.00
62617;BME280;62539;51.190;6.808;2023-02-12T05:26:15;103503.53;;;19.22;49.65
62617;BME280;62539;51.190;6.808;2023-02-12T05:28:43;103500.09;;;19.35;49.35
62617;BME280;62539;51.190;6.808;2023-02-12T05:31:10;103490.50;;;19.47;49.14
62617;BME280;62539;51.190;6.808;2023-02-12T05:33:38;103501.97;;;19.58;48.90
62617;BME280;62539;51.190;6.808;2023-02-12T05:36:09;103501.16;;;19.70;48.69
62617;BME280;62539;51.190;6.808;2023-02-12T05:38:37;103503.81;;;19.81;48.48
62617;BME280;62539;51.190;6.808;2023-02-12T05:41:04;103501.25;;;19.90;48.04
62617;BME280;62539;51.190;6.808;2023-02-12T05:43:31;103502.13;;;19.98;47.85
62617;BME280;62539;51.190;6.808;2023-02-12T05:46:00;103512.69;;;20.08;47.67
62617;BME280;62539;51.190;6.808;2023-02-12T05:48:28;103510.97;;;20.16;47.44
62617;BME280;62539;51.190;6.808;2023-02-12T05:51:00;103511.00;;;20.24;47.22
62617;BME280;62539;51.190;6.808;2023-02-12T05:53:31;103518.91;;;20.32;47.10
62617;BME280;62539;51.190;6.808;2023-02-12T05:56:12;103524.19;;;20.41;47.01
62617;BME280;62539;51.190;6.808;2023-02-12T05:58:41;103518.94;;;20.49;46.65
62617;BME280;62539;51.190;6.808;2023-02-12T06:01:23;103518.94;;;20.55;46.93
62617;BME280;62539;51.190;6.808;2023-02-12T06:03:51;103520.72;;;20.62;46.61
62617;BME280;62539;51.190;6.808;2023-02-12T06:06:17;103516.31;;;20.67;46.37
62617;BME280;62539;51.190;6.808;2023-02-12T06:08:42;103522.47;;;20.71;46.33
62617;BME280;62539;51.190;6.808;2023-02-12T06:11:12;103527.75;;;20.73;46.25
62617;BME280;62539;51.190;6.808;2023-02-12T06:13:38;103521.56;;;20.72;46.21
62617;BME280;62539;51.190;6.808;2023-02-12T06:16:04;103511.03;;;20.72;45.94
62617;BME280;62539;51.190;6.808;2023-02-12T06:18:30;103522.47;;;20.69;46.23
62617;BME280;62539;51.190;6.808;2023-02-12T06:20:55;103518.97;;;20.67;46.13
62617;BME280;62539;51.190;6.808;2023-02-12T06:23:22;103526.84;;;20.66;46.13
62617;BME280;62539;51.190;6.808;2023-02-12T06:25:49;103518.94;;;20.66;46.23
62617;BME280;62539;51.190;6.808;2023-02-12T06:28:19;103519.81;;;20.62;46.29
62617;BME280;62539;51.190;6.808;2023-02-12T06:30:44;103526.00;;;20.59;46.18
62617;BME280;62539;51.190;6.808;2023-02-12T06:33:10;103523.34;;;20.54;46.29
62617;BME280;62539;51.190;6.808;2023-02-12T06:35:36;103521.56;;;20.50;46.51
62617;BME280;62539;51.190;6.808;2023-02-12T06:38:02;103518.06;;;20.48;46.54
62617;BME280;62539;51.190;6.808;2023-02-12T06:40:28;103519.81;;;20.49;46.72
62617;BME280;62539;51.190;6.808;2023-02-12T06:42:53;103519.81;;;20.52;46.68
62617;BME280;62539;51.190;6.808;2023-02-12T06:45:19;103532.13;;;20.56;46.42
62617;BME280;62539;51.190;6.808;2023-02-12T06:47:44;103526.84;;;20.63;46.38
62617;BME280;62539;51.190;6.808;2023-02-12T06:50:09;103530.38;;;20.68;46.24
62617;BME280;62539;51.190;6.808;2023-02-12T06:52:35;103539.16;;;20.73;46.14
62617;BME280;62539;51.190;6.808;2023-02-12T06:55:01;103536.56;;;20.79;45.96
62617;BME280;62539;51.190;6.808;2023-02-12T06:57:28;103537.44;;;20.84;45.92
62617;BME280;62539;51.190;6.808;2023-02-12T06:59:54;103546.22;;;20.90;46.01
62617;BME280;62539;51.190;6.808;2023-02-12T07:02:20;103549.75;;;20.95;45.86
62617;BME280;62539;51.190;6.808;2023-02-12T07:04:45;103547.97;;;21.00;45.70
62617;BME280;62539;51.190;6.808;2023-02-12T07:07:11;103542.69;;;21.06;45.63
62617;BME280;62539;51.190;6.808;2023-02-12T07:09:36;103549.72;;;21.10;45.51
62617;BME280;62539;51.190;6.808;2023-02-12T07:12:02;103556.78;;;21.13;45.33
62617;BME280;62539;51.190;6.808;2023-02-12T07:14:28;103551.50;;;21.14;45.18
62617;BME280;62539;51.190;6.808;2023-02-12T07:16:54;103567.31;;;21.14;45.15
62617;BME280;62539;51.190;6.808;2023-02-12T07:19:20;103562.94;;;21.12;45.25
62617;BME280;62539;51.190;6.808;2023-02-12T07:21:45;103562.06;;;21.10;45.37
62617;BME280;62539;51.190;6.808;2023-02-12T07:24:11;103554.16;;;21.07;45.53
62617;BME280;62539;51.190;6.808;2023-02-12T07:26:38;103562.94;;;21.04;45.26
62617;BME280;62539;51.190;6.808;2023-02-12T07:29:04;103556.78;;;20.99;45.68
62617;BME280;62539;51.190;6.808;2023-02-12T07:31:29;103554.16;;;20.94;45.46
62617;BME280;62539;51.190;6.808;2023-02-12T07:33:57;103562.97;;;20.90;45.75
62617;BME280;62539;51.190;6.808;2023-02-12T07:36:25;103563.81;;;20.88;45.84
62617;BME280;62539;51.190;6.808;2023-02-12T07:38:53;103563.81;;;20.88;45.68
62617;BME280;62539;51.190;6.808;2023-02-12T07:41:21;103569.09;;;20.91;45.66
62617;BME280;62539;51.190;6.808;2023-02-12T07:43:56;103569.97;;;20.96;45.87
62617;BME280;62539;51.190;6.808;2023-02-12T07:46:26;103564.69;;;21.02;45.61
62617;BME280;62539;51.190;6.808;2023-02-12T07:49:01;103567.34;;;21.07;45.55
62617;BME280;62539;51.190;6.808;2023-02-12T07:51:30;103566.44;;;21.12;45.23
62617;BME280;62539;51.190;6.808;2023-02-12T07:53:57;103569.09;;;21.19;45.42
62617;BME280;62539;51.190;6.808;2023-02-12T07:56:27;103565.56;;;21.23;45.39
62617;BME280;62539;51.190;6.808;2023-02-12T07:59:00;103570.81;;;21.29;45.14
62617;BME280;62539;51.190;6.808;2023-02-12T08:01:32;103569.06;;;21.34;45.20
62617;BME280;62539;51.190;6.808;2023-02-12T08:04:08;103574.31;;;21.39;44.76
62617;BME280;62539;51.190;6.808;2023-02-12T08:06:38;103581.38;;;21.41;44.81
62617;BME280;62539;51.190;6.808;2023-02-12T08:09:08;103576.06;;;21.43;44.81
62617;BME280;62539;51.190;6.808;2023-02-12T08:11:36;103577.84;;;21.42;44.71
62617;BME280;62539;51.190;6.808;2023-02-12T08:14:03;103578.72;;;21.41;44.96
62617;BME280;62539;51.190;6.808;2023-02-12T08:16:29;103586.66;;;21.38;44.86
62617;BME280;62539;51.190;6.808;2023-02-12T08:18:56;103583.13;;;21.36;44.89
62617;BME280;62539;51.190;6.808;2023-02-12T08:21:26;103581.38;;;21.32;44.70
62617;BME280;62539;51.190;6.808;2023-02-12T08:23:53;103581.38;;;21.29;44.81
62617;BME280;62539;51.190;6.808;2023-02-12T08:29:07;103589.31;;;21.21;45.08
62617;BME280;62539;51.190;6.808;2023-02-12T08:31:38;103590.19;;;21.22;45.14
62617;BME280;62539;51.190;6.808;2023-02-12T08:34:05;103591.06;;;21.21;45.08
62617;BME280;62539;51.190;6.808;2023-02-12T08:36:38;103598.13;;;21.25;45.23
62617;BME280;62539;51.190;6.808;2023-02-12T08:39:05;103600.75;;;21.31;45.01
62617;BME280;62539;51.190;6.808;2023-02-12T08:41:33;103600.75;;;21.37;45.20
62617;BME280;62539;51.190;6.808;2023-02-12T08:44:00;103604.25;;;21.46;45.02
62617;BME280;62539;51.190;6.808;2023-02-12T08:46:29;103601.59;;;21.52;44.70
62617;BME280;62539;51.190;6.808;2023-02-12T08:49:00;103597.19;;;21.57;44.65
62617;BME280;62539;51.190;6.808;2023-02-12T08:51:30;103602.44;;;21.60;44.61
62617;BME280;62539;51.190;6.808;2023-02-12T08:54:02;103608.59;;;21.62;44.48
62617;BME280;62539;51.190;6.808;2023-02-12T08:56:30;103604.22;;;21.61;44.53
62617;BME280;62539;51.190;6.808;2023-02-12T08:58:57;103593.66;;;21.61;44.49
62617;BME280;62539;51.190;6.808;2023-02-12T09:01:26;103593.66;;;21.61;44.50
62617;BME280;62539;51.190;6.808;2023-02-12T09:03:53;103599.78;;;21.62;44.81
62617;BME280;62539;51.190;6.808;2023-02-12T09:06:21;103599.81;;;21.66;44.68
62617;BME280;62539;51.190;6.808;2023-02-12T09:08:48;103604.22;;;21.70;45.08
62617;BME280;62539;51.190;6.808;2023-02-12T09:11:17;103601.53;;;21.80;44.82
62617;BME280;62539;51.190;6.808;2023-02-12T09:13:46;103601.50;;;21.89;45.37
62617;BME280;62539;51.190;6.808;2023-02-12T09:16:13;103605.88;;;21.95;45.17
62617;BME280;62539;51.190;6.808;2023-02-12T09:18:38;103602.38;;;21.97;44.96
62617;BME280;62539;51.190;6.808;2023-02-12T09:21:10;103605.88;;;21.99;44.88
62617;BME280;62539;51.190;6.808;2023-02-12T09:23:38;103616.44;;;22.02;44.81
62617;BME280;62539;51.190;6.808;2023-02-12T09:26:09;103605.88;;;22.02;44.95
62617;BME280;62539;51.190;6.808;2023-02-12T09:28:38;103606.75;;;22.00;44.83
62617;BME280;62539;51.190;6.808;2023-02-12T09:31:12;103616.44;;;22.02;45.07
62617;BME280;62539;51.190;6.808;2023-02-12T09:33:39;103608.50;;;22.02;45.09
62617;BME280;62539;51.190;6.808;2023-02-12T09:36:11;103612.94;;;22.00;45.31
62617;BME280;62539;51.190;6.808;2023-02-12T09:38:39;103604.13;;;21.98;45.55
62617;BME280;62539;51.190;6.808;2023-02-12T09:46:44;103613.84;;;21.90;45.82
62617;BME280;62539;51.190;6.808;2023-02-12T09:49:40;103612.09;;;21.89;46.03
62617;BME280;62539;51.190;6.808;2023-02-12T09:52:27;103614.72;;;21.92;45.97
62617;BME280;62539;51.190;6.808;2023-02-12T09:54:53;103617.34;;;21.94;45.78
62617;BME280;62539;51.190;6.808;2023-02-12T09:57:25;103619.09;;;21.98;45.76
62617;BME280;62539;51.190;6.808;2023-02-12T10:00:03;103616.44;;;22.02;45.72
62617;BME280;62539;51.190;6.808;2023-02-12T10:02:34;103622.56;;;22.09;45.52
62617;BME280;62539;51.190;6.808;2023-02-12T10:05:01;103616.38;;;22.15;45.52
62617;BME280;62539;51.190;6.808;2023-02-12T10:10:47;103618.06;;;22.30;45.27
62617;BME280;62539;51.190;6.808;2023-02-12T10:13:30;103622.44;;;22.39;45.21
62617;BME280;62539;51.190;6.808;2023-02-12T10:22:28;103618.84;;;22.54;44.54
62617;BME280;62539;51.190;6.808;2023-02-12T10:31:07;103620.63;;;22.50;44.07
62617;BME280;62539;51.190;6.808;2023-02-12T10:33:46;103629.47;;;22.49;44.33
62617;BME280;62539;51.190;6.808;2023-02-12T10:36:22;103617.13;;;22.48;44.24
62617;BME280;62539;51.190;6.808;2023-02-12T10:39:24;103613.59;;;22.48;44.37
62617;BME280;62539;51.190;6.808;2023-02-12T10:42:08;103620.63;;;22.44;44.46
62617;BME280;62539;51.190;6.808;2023-02-12T10:44:40;103619.78;;;22.45;44.38
62617;BME280;62539;51.190;6.808;2023-02-12T10:47:05;103614.47;;;22.46;44.30
62617;BME280;62539;51.190;6.808;2023-02-12T10:49:39;103614.47;;;22.51;44.04
62617;BME280;62539;51.190;6.808;2023-02-12T10:57:52;103610.81;;;22.66;43.98
62617;BME280;62539;51.190;6.808;2023-02-12T11:00:43;103612.59;;;22.64;44.04
62617;BME280;62539;51.190;6.808;2023-02-12T11:05:42;103609.03;;;22.68;43.54
62617;BME280;62539;51.190;6.808;2023-02-12T11:08:35;103605.53;;;22.66;43.62
62617;BME280;62539;51.190;6.808;2023-02-12T11:11:26;103604.63;;;22.69;43.88
62617;BME280;62539;51.190;6.808;2023-02-12T11:14:06;103601.09;;;22.73;43.48
62617;BME280;62539;51.190;6.808;2023-02-12T11:16:54;103603.69;;;22.79;43.40
62617;BME280;62539;51.190;6.808;2023-02-12T11:19:28;103593.03;;;22.85;43.20
62617;BME280;62539;51.190;6.808;2023-02-12T11:22:08;103590.34;;;22.90;43.31
62617;BME280;62539;51.190;6.808;2023-02-12T11:24:38;103592.97;;;22.95;43.10
62617;BME280;62539;51.190;6.808;2023-02-12T11:27:24;103591.16;;;23.00;43.43
62617;BME280;62539;51.190;6.808;2023-02-12T11:30:15;103589.38;;;23.02;43.62
62617;BME280;62539;51.190;6.808;2023-02-12T11:32:45;103585.84;;;23.03;43.84
62617;BME280;62539;51.190;6.808;2023-02-12T11:35:24;103588.50;;;23.00;43.84
62617;BME280;62539;51.190;6.808;2023-02-12T11:37:58;103586.72;;;23.00;43.90
62617;BME280;62539;51.190;6.808;2023-02-12T11:40:30;103579.66;;;23.04;43.98
62617;BME280;62539;51.190;6.808;2023-02-12T11:42:59;103578.72;;;23.08;43.74
62617;BME280;62539;51.190;6.808;2023-02-12T11:45:34;103575.16;;;23.12;43.92
62617;BME280;62539;51.190;6.808;2023-02-12T11:48:24;103573.38;;;23.14;43.66
62617;BME280;62539;51.190;6.808;2023-02-12T11:50:56;103582.19;;;23.16;43.97
62617;BME280;62539;51.190;6.808;2023-02-12T11:53:28;103580.41;;;23.17;43.47
62617;BME280;62539;51.190;6.808;2023-02-12T11:56:02;103568.94;;;23.16;43.59
62617;BME280;62539;51.190;6.808;2023-02-12T11:58:30;103563.69;;;23.13;43.78
62617;BME280;62539;51.190;6.808;2023-02-12T12:01:26;103571.66;;;23.10;43.73
62617;BME280;62539;51.190;6.808;2023-02-12T12:04:08;103564.59;;;23.09;43.93
62617;BME280;62539;51.190;6.808;2023-02-12T12:06:44;103557.59;;;23.05;43.93
62617;BME280;62539;51.190;6.808;2023-02-12T12:10:00;103564.72;;;22.97;43.93
62617;BME280;62539;51.190;6.808;2023-02-12T12:12:39;103558.56;;;22.93;43.60
62617;BME280;62539;51.190;6.808;2023-02-12T12:15:25;103560.38;;;22.89;43.94
62617;BME280;62539;51.190;6.808;2023-02-12T12:21:08;103551.50;;;22.92;43.75
62617;BME280;62539;51.190;6.808;2023-02-12T12:23:45;103554.13;;;22.97;43.88
62617;BME280;62539;51.190;6.808;2023-02-12T12:26:23;103547.03;;;22.97;44.22
62617;BME280;62539;51.190;6.808;2023-02-12T12:29:23;103544.44;;;22.96;44.23
62617;BME280;62539;51.190;6.808;2023-02-12T12:32:00;103543.53;;;22.97;44.40
62617;BME280;62539;51.190;6.808;2023-02-12T12:34:29;103524.13;;;22.98;44.19
62617;BME280;62539;51.190;6.808;2023-02-12T12:37:19;103532.94;;;22.97;44.58
62617;BME280;62539;51.190;6.808;2023-02-12T12:45:14;103518.00;;;22.93;44.33
62617;BME280;62539;51.190;6.808;2023-02-12T12:48:03;103519.72;;;22.97;44.43
62617;BME280;62539;51.190;6.808;2023-02-12T12:53:49;103516.06;;;23.09;44.56
62617;BME280;62539;51.190;6.808;2023-02-12T13:02:33;103504.31;;;23.36;43.36
62617;BME280;62539;51.190;6.808;2023-02-12T13:16:58;103478.63;;;23.44;43.72
62617;BME280;62539;51.190;6.808;2023-02-12T13:19:44;103476.00;;;23.41;43.51
62617;BME280;62539;51.190;6.808;2023-02-12T13:22:46;103477.84;;;23.36;43.55
62617;BME280;62539;51.190;6.808;2023-02-12T13:28:48;103474.44;;;23.25;44.31
62617;BME280;62539;51.190;6.808;2023-02-12T13:31:26;103468.25;;;23.26;44.03
62617;BME280;62539;51.190;6.808;2023-02-12T13:33:57;103471.72;;;23.31;44.45
62617;BME280;62539;51.190;6.808;2023-02-12T13:36:25;103471.69;;;23.34;44.26
62617;BME280;62539;51.190;6.808;2023-02-12T13:39:06;103469.84;;;23.38;44.24
62617;BME280;62539;51.190;6.808;2023-02-12T13:41:46;103458.28;;;23.46;43.72
62617;BME280;62539;51.190;6.808;2023-02-12T13:44:30;103468.84;;;23.49;44.01
62617;BME280;62539;51.190;6.808;2023-02-12T13:47:29;103460.00;;;23.51;43.55
62617;BME280;62539;51.190;6.808;2023-02-12T13:50:22;103466.19;;;23.49;43.66
62617;BME280;62539;51.190;6.808;2023-02-12T13:58:49;103459.06;;;23.55;44.17
62617;BME280;62539;51.190;6.808;2023-02-12T14:01:46;103463.38;;;23.62;43.80
62617;BME280;62539;51.190;6.808;2023-02-12T14:07:04;103454.44;;;23.69;44.63
62617;BME280;62539;51.190;6.808;2023-02-12T14:10:00;103455.31;;;23.71;44.28
62617;BME280;62539;51.190;6.808;2023-02-12T14:14:50;103460.69;;;23.65;44.25
62617;BME280;62539;51.190;6.808;2023-02-12T14:20:21;103451.91;;;23.60;44.62
62617;BME280;62539;51.190;6.808;2023-02-12T14:23:25;103451.88;;;23.61;44.79
62617;BME280;62539;51.190;6.808;2023-02-12T14:26:06;103457.13;;;23.66;45.20
62617;BME280;62539;51.190;6.808;2023-02-12T14:28:50;103456.19;;;23.70;44.88
62617;BME280;62539;51.190;6.808;2023-02-12T14:39:03;103450.94;;;23.66;45.93
62617;BME280;62539;51.190;6.808;2023-02-12T14:41:54;103458.06;;;23.62;45.75
62617;BME280;62539;51.190;6.808;2023-02-12T14:44:53;103464.31;;;23.56;45.85
62617;BME280;62539;51.190;6.808;2023-02-12T14:49:56;103455.63;;;23.45;45.84
62617;BME280;62539;51.190;6.808;2023-02-12T14:52:30;103452.16;;;23.40;45.96
62617;BME280;62539;51.190;6.808;2023-02-12T14:55:14;103451.31;;;23.39;46.38
62617;BME280;62539;51.190;6.808;2023-02-12T14:57:45;103450.41;;;23.39;46.24
62617;BME280;62539;51.190;6.808;2023-02-12T15:00:21;103446.88;;;23.41;46.48
62617;BME280;62539;51.190;6.808;2023-02-12T15:02:54;103445.03;;;23.46;46.29
62617;BME280;62539;51.190;6.808;2023-02-12T15:05:32;103450.25;;;23.51;45.86
62617;BME280;62539;51.190;6.808;2023-02-12T15:08:07;103447.59;;;23.51;45.70
62617;BME280;62539;51.190;6.808;2023-02-12T15:10:50;103445.84;;;23.50;45.88
62617;BME280;62539;51.190;6.808;2023-02-12T15:15:51;103442.41;;;23.43;45.85
62617;BME280;62539;51.190;6.808;2023-02-12T15:18:21;103438.91;;;23.41;45.72